createdAt,value
2019-04-22T00:02:05.688Z,24.50
2019-04-22T00:04:47.583Z,27.20
2019-04-22T00:07:28.959Z,21.80
2019-04-22T00:12:34.626Z,20.67
2019-04-22T00:15:02.292Z,26.27
2019-04-22T00:17:40.145Z,23.80
2019-04-22T00:20:08.710Z,20.93
2019-04-22T00:25:13.354Z,18.67
2019-04-22T00:27:42.805Z,18.50
2019-04-22T00:30:21.563Z,18.10
2019-04-22T00:32:51.295Z,17.80
2019-04-22T00:35:18.084Z,19.07
2019-04-22T00:37:59.902Z,16.50
2019-04-22T00:40:30.882Z,18.10
2019-04-22T00:42:55.429Z,20.03
2019-04-22T00:45:27.026Z,56.20
2019-04-22T00:48:00.880Z,60.50
2019-04-22T00:53:04.427Z,33.80
2019-04-22T00:55:33.765Z,20.70
2019-04-22T00:58:06.267Z,20.90
2019-04-22T01:00:40.661Z,20.50
2019-04-22T01:03:17.384Z,19.73
2019-04-22T01:05:42.222Z,24.73
2019-04-22T01:08:09.876Z,23.70
2019-04-22T01:10:40.770Z,26.00
2019-04-22T01:13:11.350Z,22.70
2019-04-22T01:15:40.438Z,21.63
2019-04-22T01:18:09.805Z,23.77
2019-04-22T01:21:00.963Z,29.40
2019-04-22T01:23:12.736Z,25.13
2019-04-22T01:25:41.074Z,21.80
2019-04-22T01:28:09.949Z,21.57
2019-04-22T01:30:34.979Z,18.83
2019-04-22T01:33:05.677Z,16.17
2019-04-22T01:35:41.146Z,21.53
2019-04-22T01:38:17.690Z,20.53
2019-04-22T01:41:05.018Z,20.73
2019-04-22T01:43:25.177Z,19.10
2019-04-22T01:46:02.635Z,19.13
2019-04-22T01:48:26.127Z,36.33
2019-04-22T01:50:56.190Z,21.73
2019-04-22T01:53:36.108Z,18.03
2019-04-22T01:56:02.137Z,17.20
2019-04-22T01:58:31.090Z,15.30
2019-04-22T02:01:04.560Z,16.47
2019-04-22T02:03:42.324Z,14.57
2019-04-22T02:06:07.537Z,18.10
2019-04-22T02:08:45.138Z,14.93
2019-04-22T02:11:17.330Z,16.37
2019-04-22T02:13:43.091Z,16.50
2019-04-22T02:16:17.928Z,17.73
2019-04-22T02:18:44.466Z,17.13
2019-04-22T02:21:13.726Z,15.73
2019-04-22T02:26:18.029Z,16.27
2019-04-22T02:29:01.884Z,17.23
2019-04-22T02:36:29.463Z,17.13
2019-04-22T02:41:26.381Z,17.47
2019-04-22T02:44:13.692Z,16.63
2019-04-22T02:46:47.498Z,14.73
2019-04-22T02:49:16.614Z,17.80
2019-04-22T02:51:27.895Z,18.83
2019-04-22T02:59:12.364Z,21.30
2019-04-22T03:01:39.782Z,16.77
2019-04-22T03:04:10.953Z,16.57
2019-04-22T03:06:42.693Z,17.70
2019-04-22T03:09:16.571Z,17.03
2019-04-22T03:19:26.188Z,17.53
2019-04-22T03:21:46.929Z,15.60
2019-04-22T03:26:55.765Z,17.57
2019-04-22T03:29:46.667Z,19.37
2019-04-22T03:37:34.022Z,19.57
2019-04-22T03:39:59.281Z,20.80
2019-04-22T03:49:55.899Z,21.13
2019-04-22T03:55:00.751Z,19.77
2019-04-22T03:57:40.581Z,21.30
2019-04-22T04:02:30.749Z,19.13
2019-04-22T04:04:49.620Z,18.77
2019-04-22T04:10:01.462Z,21.53
2019-04-22T04:12:28.708Z,22.77
2019-04-22T04:15:05.428Z,20.23
2019-04-22T04:25:24.943Z,15.13
2019-04-22T04:30:14.764Z,18.53
2019-04-22T04:32:41.453Z,20.40
2019-04-22T04:37:50.123Z,22.80
2019-04-22T04:40:28.958Z,24.70
2019-04-22T04:47:49.225Z,18.30
2019-04-22T04:50:12.357Z,15.43
2019-04-22T04:53:02.588Z,16.83
2019-04-22T04:55:26.712Z,15.37
2019-04-22T04:58:04.432Z,19.23
2019-04-22T05:00:37.317Z,16.73
2019-04-22T05:02:53.003Z,16.73
2019-04-22T05:05:28.762Z,16.67
2019-04-22T05:08:00.769Z,13.63
2019-04-22T05:10:39.096Z,14.47
2019-04-22T05:12:57.209Z,12.83
2019-04-22T05:17:58.022Z,12.63
2019-04-22T05:20:49.256Z,12.53
2019-04-22T05:22:51.359Z,11.23
2019-04-22T05:27:57.644Z,13.50
2019-04-22T05:33:18.360Z,11.53
2019-04-22T05:35:31.125Z,10.93
2019-04-22T05:38:04.216Z,15.63
2019-04-22T05:40:44.125Z,12.37
2019-04-22T05:43:02.507Z,14.53
2019-04-22T05:45:32.816Z,14.43
2019-04-22T05:48:02.809Z,14.87
2019-04-22T05:50:37.100Z,12.20
2019-04-22T05:53:19.890Z,14.00
2019-04-22T05:55:43.860Z,13.87
2019-04-22T05:58:08.980Z,13.73
2019-04-22T06:01:14.414Z,12.67
2019-04-22T06:03:16.070Z,12.03
2019-04-22T06:05:47.927Z,11.40
2019-04-22T06:08:19.638Z,12.37
2019-04-22T06:10:54.094Z,12.13
2019-04-22T06:13:23.589Z,12.90
2019-04-22T06:19:08.723Z,10.93
2019-04-22T06:21:38.538Z,11.77
2019-04-22T06:24:18.730Z,10.60
2019-04-22T06:27:41.606Z,13.50
2019-04-22T06:29:15.332Z,14.00
2019-04-22T06:32:03.970Z,12.57
2019-04-22T06:34:17.901Z,14.37
2019-04-22T06:36:51.088Z,10.90
2019-04-22T06:39:30.783Z,13.43
2019-04-22T06:41:56.206Z,13.73
2019-04-22T06:44:24.156Z,10.17
2019-04-22T06:47:00.599Z,12.40
2019-04-22T06:49:35.879Z,12.07
2019-04-22T06:56:15.851Z,11.63
2019-04-22T06:58:55.086Z,12.63
2019-04-22T07:01:31.434Z,11.87
2019-04-22T07:04:17.122Z,13.70
2019-04-22T07:07:05.373Z,16.43
2019-04-22T07:10:11.582Z,14.67
2019-04-22T07:12:54.290Z,15.80
2019-04-22T07:19:18.409Z,14.30
2019-04-22T07:21:43.982Z,22.20
2019-04-22T07:24:40.589Z,15.67
2019-04-22T07:27:00.493Z,10.20
2019-04-22T07:29:52.477Z,10.83
2019-04-22T07:32:17.178Z,14.17
2019-04-22T07:37:28.453Z,10.27
2019-04-22T07:39:51.375Z,11.83
2019-04-22T07:42:28.227Z,15.10
2019-04-22T07:44:59.339Z,9.77
2019-04-22T07:47:35.422Z,7.50
2019-04-22T07:49:59.183Z,9.43
2019-04-22T07:52:34.887Z,10.57
2019-04-22T07:55:04.287Z,8.77
2019-04-22T07:57:40.909Z,10.37
2019-04-22T08:00:22.765Z,10.40
2019-04-22T08:02:44.186Z,21.80
2019-04-22T08:05:17.195Z,9.80
2019-04-22T08:07:45.393Z,10.40
2019-04-22T08:10:25.568Z,9.50
2019-04-22T08:12:47.507Z,8.67
2019-04-22T08:15:12.532Z,9.20
2019-04-22T08:17:55.088Z,8.10
2019-04-22T08:20:25.224Z,8.77
2019-04-22T08:23:02.923Z,6.33
2019-04-22T08:25:27.159Z,5.80
2019-04-22T08:27:57.155Z,8.80
2019-04-22T08:30:30.389Z,6.90
2019-04-22T08:33:16.183Z,7.90
2019-04-22T08:35:50.208Z,6.90
2019-04-22T08:38:02.484Z,7.63
2019-04-22T08:40:36.427Z,6.47
2019-04-22T08:43:07.211Z,10.00
2019-04-22T08:45:38.464Z,7.03
2019-04-22T08:48:00.993Z,12.63
2019-04-22T08:50:41.308Z,6.93
2019-04-22T08:53:11.094Z,6.87
2019-04-22T08:58:20.265Z,6.07
2019-04-22T09:00:50.020Z,8.97
2019-04-22T09:03:10.700Z,5.93
2019-04-22T09:05:58.309Z,6.60
2019-04-22T09:08:19.295Z,7.10
2019-04-22T09:10:48.655Z,6.37
2019-04-22T09:13:18.594Z,5.90
2019-04-22T09:15:49.164Z,10.50
2019-04-22T09:18:21.745Z,8.70
2019-04-22T09:21:04.703Z,7.27
2019-04-22T09:25:59.567Z,8.83
2019-04-22T09:28:24.574Z,7.90
2019-04-22T09:31:01.279Z,6.63
2019-04-22T09:33:34.886Z,7.03
2019-04-22T09:36:12.802Z,5.77
2019-04-22T09:41:10.378Z,7.13
2019-04-22T09:43:40.669Z,6.17
2019-04-22T09:46:08.888Z,5.57
2019-04-22T09:51:12.038Z,5.87
2019-04-22T09:56:18.090Z,5.77
2019-04-22T09:58:50.587Z,5.00
2019-04-22T10:01:24.296Z,5.67
2019-04-22T10:03:56.449Z,6.03
2019-04-22T10:09:22.655Z,8.80
2019-04-22T10:11:31.324Z,5.27
2019-04-22T10:14:03.920Z,4.33
2019-04-22T10:19:00.941Z,5.13
2019-04-22T10:21:37.186Z,7.30
2019-04-22T10:23:59.982Z,11.17
2019-04-22T10:26:34.928Z,7.37
2019-04-22T10:29:09.116Z,7.47
2019-04-22T10:31:37.146Z,10.70
2019-04-22T10:33:53.177Z,9.53
2019-04-22T10:36:09.974Z,7.40
2019-04-22T10:38:42.122Z,6.03
2019-04-22T10:41:12.369Z,10.10
2019-04-22T10:43:43.234Z,8.53
2019-04-22T10:46:13.848Z,8.87
2019-04-22T10:48:44.339Z,8.03
2019-04-22T10:51:14.796Z,9.27
2019-04-22T10:53:44.202Z,9.57
2019-04-22T10:56:14.758Z,10.17
2019-04-22T10:58:44.732Z,7.43
2019-04-22T11:01:15.860Z,7.67
2019-04-22T11:03:46.744Z,8.23
2019-04-22T11:06:17.131Z,7.60
2019-04-22T11:08:52.266Z,10.30
2019-04-22T11:11:30.191Z,7.73
2019-04-22T11:13:49.620Z,8.83
2019-04-22T11:16:19.358Z,9.37
2019-04-22T11:18:49.600Z,8.57
2019-04-22T11:21:19.908Z,8.10
2019-04-22T11:23:50.387Z,6.90
2019-04-22T11:26:21.800Z,7.73
2019-04-22T11:28:51.769Z,9.03
2019-04-22T11:31:21.661Z,8.23
2019-04-22T11:33:52.500Z,15.67
2019-04-22T11:36:21.958Z,7.93
2019-04-22T11:38:56.537Z,10.97
2019-04-22T11:41:23.564Z,6.83
2019-04-22T11:43:53.605Z,8.47
2019-04-22T11:46:23.183Z,11.87
2019-04-22T11:48:53.953Z,10.37
2019-04-22T11:51:24.332Z,9.07
2019-04-22T11:53:54.785Z,10.80
2019-04-22T11:56:25.262Z,8.67
2019-04-22T11:58:55.200Z,8.33
2019-04-22T12:01:24.693Z,7.87
2019-04-22T12:03:53.951Z,7.50
2019-04-22T12:06:24.041Z,10.97
2019-04-22T12:08:54.173Z,8.27
2019-04-22T12:11:23.988Z,8.47
2019-04-22T12:13:54.018Z,8.67
2019-04-22T12:16:23.423Z,12.60
2019-04-22T12:18:53.498Z,9.33
2019-04-22T12:21:23.413Z,11.23
2019-04-22T12:23:52.909Z,9.30
2019-04-22T12:26:25.107Z,9.97
2019-04-22T12:28:55.054Z,12.33
2019-04-22T12:31:24.425Z,11.97
2019-04-22T12:33:55.002Z,12.30
2019-04-22T12:36:24.656Z,9.97
2019-04-22T12:38:55.346Z,12.13
2019-04-22T12:41:25.830Z,10.13
2019-04-22T12:43:55.489Z,9.47
2019-04-22T12:46:26.119Z,9.80
2019-04-22T12:48:56.213Z,10.30
2019-04-22T12:51:27.229Z,9.90
2019-04-22T12:53:57.475Z,11.10
2019-04-22T12:56:27.869Z,10.77
2019-04-22T12:58:57.518Z,10.37
2019-04-22T13:01:27.061Z,11.53
2019-04-22T13:04:02.063Z,10.77
2019-04-22T13:06:28.139Z,9.63
2019-04-22T13:08:57.848Z,9.07
2019-04-22T13:11:30.929Z,14.53
2019-04-22T13:13:59.007Z,10.67
2019-04-22T13:16:29.298Z,9.80
2019-04-22T13:19:02.220Z,11.03
2019-04-22T13:21:31.117Z,10.83
2019-04-22T13:24:02.527Z,11.10
2019-04-22T13:26:33.724Z,9.80
2019-04-22T13:29:03.331Z,10.33
2019-04-22T13:31:33.126Z,12.17
2019-04-22T13:34:04.064Z,11.03
2019-04-22T13:36:34.438Z,12.90
2019-04-22T13:39:06.993Z,8.97
2019-04-22T13:44:09.140Z,11.40
2019-04-22T13:46:41.102Z,10.80
2019-04-22T13:49:40.459Z,10.67
2019-04-22T13:52:26.663Z,13.13
2019-04-22T13:53:53.454Z,10.07
2019-04-22T13:57:03.873Z,8.87
2019-04-22T13:59:23.062Z,10.47
2019-04-22T14:02:04.452Z,10.50
2019-04-22T14:04:38.467Z,10.07
2019-04-22T14:07:07.954Z,11.60
2019-04-22T14:09:38.215Z,11.00
2019-04-22T14:12:11.483Z,11.20
2019-04-22T14:14:41.888Z,10.70
2019-04-22T14:17:11.217Z,12.43
2019-04-22T14:19:40.662Z,14.77
2019-04-22T14:22:11.637Z,9.13
2019-04-22T14:24:42.665Z,10.33
2019-04-22T14:27:25.830Z,9.33
2019-04-22T14:29:43.866Z,7.60
2019-04-22T14:32:21.041Z,14.13
2019-04-22T14:34:44.985Z,9.37
2019-04-22T14:37:14.380Z,7.40
2019-04-22T14:39:44.323Z,9.53
2019-04-22T14:42:34.327Z,10.57
2019-04-22T14:45:20.228Z,16.80
2019-04-22T14:47:39.663Z,8.40
2019-04-22T14:50:07.998Z,7.93
2019-04-22T14:52:39.484Z,9.30
2019-04-22T14:55:00.898Z,13.00
2019-04-22T14:57:21.255Z,8.10
2019-04-22T14:59:50.396Z,11.10
2019-04-22T15:02:19.745Z,13.20
2019-04-22T15:04:50.090Z,13.00
2019-04-22T15:07:19.347Z,11.23
2019-04-22T15:09:48.553Z,10.40
2019-04-22T15:12:29.964Z,11.67
2019-04-22T15:14:51.180Z,13.67
2019-04-22T15:17:38.841Z,11.43
2019-04-22T15:20:48.726Z,9.90
2019-04-22T15:23:16.923Z,9.27
2019-04-22T15:25:46.473Z,13.17
2019-04-22T15:28:15.807Z,9.67
2019-04-22T15:30:47.730Z,16.93
2019-04-22T15:33:17.534Z,10.60
2019-04-22T15:35:47.255Z,11.20
2019-04-22T15:38:17.742Z,12.30
2019-04-22T15:40:49.022Z,14.50
2019-04-22T15:43:18.248Z,12.93
2019-04-22T15:45:48.534Z,13.20
2019-04-22T15:48:18.830Z,11.87
2019-04-22T15:50:48.881Z,16.73
2019-04-22T15:53:20.069Z,12.03
2019-04-22T15:55:50.407Z,14.93
2019-04-22T15:58:20.007Z,12.87
2019-04-22T16:01:00.029Z,13.43
2019-04-22T16:03:22.606Z,11.60
2019-04-22T16:05:54.408Z,11.43
2019-04-22T16:08:24.709Z,14.03
2019-04-22T16:10:55.806Z,11.20
2019-04-22T16:13:28.717Z,12.40
2019-04-22T16:15:56.501Z,10.37
2019-04-22T16:18:26.506Z,12.17
2019-04-22T16:20:56.450Z,13.33
2019-04-22T16:23:54.609Z,10.67
2019-04-22T16:26:50.576Z,14.27
2019-04-22T16:29:21.270Z,12.77
2019-04-22T16:31:51.479Z,15.10
2019-04-22T16:34:21.686Z,10.10
2019-04-22T16:36:52.539Z,12.27
2019-04-22T16:39:22.801Z,18.07
2019-04-22T16:41:52.828Z,12.37
2019-04-22T16:44:22.663Z,12.43
2019-04-22T16:46:52.531Z,13.33
2019-04-22T16:49:23.598Z,15.93
2019-04-22T16:51:56.053Z,16.53
2019-04-22T16:54:26.360Z,12.97
2019-04-22T16:57:01.895Z,13.10
2019-04-22T16:59:32.755Z,13.93
2019-04-22T17:02:34.762Z,12.90
2019-04-22T17:05:23.219Z,21.57
2019-04-22T17:07:54.215Z,19.73
2019-04-22T17:10:23.798Z,19.37
2019-04-22T17:13:00.223Z,15.90
2019-04-22T17:15:24.820Z,16.33
2019-04-22T17:17:54.934Z,16.90
2019-04-22T17:20:25.128Z,15.83
2019-04-22T17:22:55.802Z,15.90
2019-04-22T17:25:26.598Z,14.60
2019-04-22T17:27:57.371Z,17.83
2019-04-22T17:30:26.926Z,17.87
2019-04-22T17:32:56.696Z,12.93
2019-04-22T17:35:26.274Z,13.33
2019-04-22T17:38:06.520Z,18.37
2019-04-22T17:40:48.769Z,21.13
2019-04-22T17:43:29.856Z,17.83
2019-04-22T17:46:10.828Z,15.93
2019-04-22T17:48:53.304Z,19.27
2019-04-22T17:51:29.411Z,20.17
2019-04-22T17:53:59.605Z,17.17
2019-04-22T17:56:32.478Z,20.63
2019-04-22T17:59:18.662Z,17.17
2019-04-22T18:01:29.706Z,19.97
2019-04-22T18:03:49.178Z,17.47
2019-04-22T18:06:39.225Z,17.53
2019-04-22T18:09:02.169Z,19.50
2019-04-22T18:11:41.529Z,17.03
2019-04-22T18:14:25.861Z,20.47
2019-04-22T18:16:42.780Z,16.20
2019-04-22T18:19:09.978Z,18.20
2019-04-22T18:21:35.083Z,16.90
2019-04-22T18:24:01.265Z,18.70
2019-04-22T18:26:43.704Z,18.97
2019-04-22T18:29:11.487Z,18.20
2019-04-22T18:31:44.228Z,17.83
2019-04-22T18:34:21.265Z,22.60
2019-04-22T18:36:54.963Z,24.00
2019-04-22T18:39:42.422Z,17.10
2019-04-22T18:42:05.791Z,23.50
2019-04-22T18:44:40.230Z,19.10
2019-04-22T18:47:10.695Z,17.23
2019-04-22T18:49:40.601Z,15.07
2019-04-22T18:52:31.802Z,23.70
2019-04-22T18:55:16.642Z,17.37
2019-04-22T18:57:59.875Z,27.33
2019-04-22T19:00:19.158Z,20.90
2019-04-22T19:02:56.818Z,18.73
2019-04-22T19:05:35.946Z,21.70
2019-04-22T19:08:18.338Z,23.90
2019-04-22T19:11:05.003Z,17.63
2019-04-22T19:16:00.511Z,17.60
2019-04-22T19:20:59.892Z,20.43
2019-04-22T19:23:25.728Z,18.10
2019-04-22T19:25:55.669Z,17.77
2019-04-22T19:28:37.641Z,18.53
2019-04-22T19:31:02.637Z,17.67
2019-04-22T19:33:28.958Z,17.17
2019-04-22T19:35:59.271Z,18.23
2019-04-22T19:38:25.320Z,24.47
2019-04-22T19:43:38.941Z,17.30
2019-04-22T19:46:08.789Z,18.40
2019-04-22T19:48:45.709Z,20.10
2019-04-22T19:51:20.988Z,21.33
2019-04-22T19:53:46.986Z,20.33
2019-04-22T19:56:10.175Z,17.37
2019-04-22T19:58:44.432Z,16.63
2019-04-22T20:01:32.082Z,22.20
2019-04-22T20:04:19.291Z,16.73
2019-04-22T20:07:17.902Z,20.33
2019-04-22T20:09:55.289Z,15.07
2019-04-22T20:12:21.722Z,15.20
2019-04-22T20:14:49.530Z,18.63
2019-04-22T20:17:26.619Z,17.47
2019-04-22T20:20:16.386Z,16.23
2019-04-22T20:22:28.651Z,15.63
2019-04-22T20:24:47.105Z,17.03
2019-04-22T20:27:31.737Z,14.30
2019-04-22T20:30:09.910Z,21.30
2019-04-22T20:32:36.106Z,16.33
2019-04-22T20:35:07.977Z,15.90
2019-04-22T20:37:48.173Z,15.53
2019-04-22T20:40:10.729Z,20.33
2019-04-22T20:42:48.693Z,14.87
2019-04-22T20:45:15.021Z,15.13
2019-04-22T20:47:40.501Z,16.43
2019-04-22T20:50:19.619Z,16.90
2019-04-22T20:52:54.045Z,15.67
2019-04-22T20:55:13.123Z,14.83
2019-04-22T20:57:53.558Z,15.40
2019-04-22T21:00:15.075Z,16.13
2019-04-22T21:02:46.480Z,15.37
2019-04-22T21:05:22.544Z,20.33
2019-04-22T21:07:57.786Z,19.50
2019-04-22T21:10:22.809Z,14.77
2019-04-22T21:12:50.955Z,17.33
2019-04-22T21:15:31.437Z,15.67
2019-04-22T21:18:04.384Z,13.97
2019-04-22T21:20:41.169Z,13.20
2019-04-22T21:23:02.733Z,17.20
2019-04-22T21:25:27.717Z,14.30
2019-04-22T21:28:09.583Z,14.07
2019-04-22T21:30:37.708Z,18.73
2019-04-22T21:33:03.599Z,17.77
2019-04-22T21:36:23.523Z,15.87
2019-04-22T21:38:32.587Z,13.07
2019-04-22T21:41:05.980Z,13.43
2019-04-22T21:43:36.945Z,13.87
2019-04-22T21:46:13.402Z,10.47
2019-04-22T21:48:49.385Z,11.27
2019-04-22T21:51:19.894Z,10.77
2019-04-22T21:53:50.376Z,9.93
2019-04-22T21:56:41.042Z,17.47
2019-04-22T21:58:56.148Z,10.80
2019-04-22T22:01:44.721Z,11.67
2019-04-22T22:04:09.719Z,12.23
2019-04-22T22:06:33.659Z,14.67
2019-04-22T22:09:15.760Z,12.30
2019-04-22T22:11:38.596Z,13.40
2019-04-22T22:14:11.570Z,10.50
2019-04-22T22:16:34.932Z,11.27
2019-04-22T22:19:11.707Z,10.00
2019-04-22T22:21:53.173Z,12.63
2019-04-22T22:24:20.696Z,12.37
2019-04-22T22:26:53.936Z,14.87
2019-04-22T22:29:29.434Z,15.73
2019-04-22T22:31:52.891Z,17.27
2019-04-22T22:34:25.098Z,13.63
2019-04-22T22:36:46.519Z,13.90
2019-04-22T22:39:17.404Z,10.17
2019-04-22T22:41:35.960Z,12.93
2019-04-22T22:44:15.659Z,15.57
2019-04-22T22:46:54.931Z,13.67
2019-04-22T22:49:32.970Z,11.03
2019-04-22T22:52:16.704Z,10.43
2019-04-22T22:54:34.932Z,13.07
2019-04-22T22:57:08.789Z,12.70
2019-04-22T22:59:32.889Z,13.83
2019-04-22T23:02:01.295Z,16.77
2019-04-22T23:04:39.620Z,13.00
2019-04-22T23:07:11.156Z,13.57
2019-04-22T23:09:36.662Z,14.40
2019-04-22T23:14:44.500Z,15.60
2019-04-22T23:16:59.178Z,13.23
2019-04-22T23:19:21.820Z,12.57
2019-04-22T23:21:57.506Z,14.67
2019-04-22T23:24:59.885Z,13.33
2019-04-22T23:27:38.970Z,13.60
2019-04-22T23:30:25.166Z,13.60
2019-04-22T23:33:03.398Z,14.73
2019-04-22T23:35:44.662Z,13.47
2019-04-22T23:38:11.996Z,12.73
2019-04-22T23:41:00.095Z,11.17
2019-04-22T23:43:27.549Z,14.90
2019-04-22T23:45:51.983Z,15.43
2019-04-22T23:48:21.067Z,19.40
2019-04-22T23:50:57.411Z,13.47
2019-04-22T23:53:47.448Z,13.47
2019-04-22T23:56:01.737Z,15.17
2019-04-22T23:58:49.214Z,12.30
